Time;durP1;ratioP1;P1;durP2;ratioP2;P2;SDS_P1;SDS_P2;PMS_P1;PMS_P2;Temp;Humidity;BMP_temperature;BMP_pressure;BME280_temperature;BME280_humidity;BME280_pressure;Samples;Min_cycle;Max_cycle;Signal;HPM_P1;HPM_P2
2022/01/23 00:00:26;;;;;;;172.35;48.08;;;;;;;4.65;100.00;103236.56;4995356;28;20053;-79
2022/01/23 00:02:59;;;;;;;164.60;51.15;;;;;;;4.65;100.00;103230.25;5000452;28;20042;-80
2022/01/23 00:05:29;;;;;;;167.02;49.50;;;;;;;4.64;100.00;103226.66;5012788;28;20042;-79
2022/01/23 00:07:54;;;;;;;166.52;47.38;;;;;;;4.67;100.00;103226.56;5003822;28;20378;-79
2022/01/23 00:10:20;;;;;;;168.20;47.45;;;;;;;4.71;100.00;103227.44;5003521;28;20096;-79
2022/01/23 00:12:54;;;;;;;160.50;46.80;;;;;;;4.67;100.00;103223.88;5000581;28;20088;-78
2022/01/23 00:18:03;;;;;;;157.27;46.63;;;;;;;4.71;100.00;103222.91;5033277;28;20053;-79
2022/01/23 00:20:29;;;;;;;161.43;46.53;;;;;;;4.70;100.00;103207.53;5001329;28;20038;-78
2022/01/23 00:22:58;;;;;;;163.48;46.72;;;;;;;4.65;100.00;103200.41;5033592;28;20025;-79
2022/01/23 00:31:09;;;;;;;153.25;44.88;;;;;;;4.66;100.00;103205.81;5031540;28;20045;-79
2022/01/23 00:33:34;;;;;;;151.70;45.50;;;;;;;4.66;100.00;103207.66;5017215;28;20034;-79
2022/01/23 00:36:00;;;;;;;163.70;45.47;;;;;;;4.66;100.00;103203.09;5002807;28;20045;-79
2022/01/23 00:38:25;;;;;;;167.25;48.05;;;;;;;4.65;100.00;103206.72;5000477;28;20632;-78
2022/01/23 00:40:51;;;;;;;162.05;47.80;;;;;;;4.60;100.00;103198.66;5016847;28;20034;-79
2022/01/23 00:43:26;;;;;;;155.48;46.00;;;;;;;4.59;100.00;103204.09;5033379;28;20061;-80
2022/01/23 00:45:57;;;;;;;159.57;45.97;;;;;;;4.64;100.00;103204.94;5016245;28;20022;-79
2022/01/23 00:48:28;;;;;;;162.73;47.85;;;;;;;4.63;100.00;103202.25;5001145;28;20030;-78
2022/01/23 00:50:53;;;;;;;168.45;48.33;;;;;;;4.62;100.00;103201.34;5017346;28;20037;-80
2022/01/23 00:53:19;;;;;;;150.65;47.13;;;;;;;4.64;100.00;103210.38;5032996;28;20393;-79
2022/01/23 00:55:46;;;;;;;170.20;48.30;;;;;;;4.62;100.00;103209.47;5000742;28;20042;-79
2022/01/23 00:58:13;;;;;;;161.98;48.58;;;;;;;4.64;100.00;103213.09;5033882;28;20057;-80
2022/01/23 01:00:40;;;;;;;165.00;46.53;;;;;;;4.65;100.00;103206.72;5004777;28;20076;-79
2022/01/23 01:03:06;;;;;;;161.18;47.35;;;;;;;4.61;100.00;103199.56;5000841;28;20077;-80
2022/01/23 01:05:32;;;;;;;155.88;46.25;;;;;;;4.60;100.00;103195.94;5001656;28;20098;-80
2022/01/23 01:07:59;;;;;;;156.05;46.97;;;;;;;4.63;100.00;103195.00;5017882;28;20106;-80
2022/01/23 01:11:26;;;;;;;174.35;48.20;;;;;;;4.64;100.00;103196.81;5007402;28;20039;-80
2022/01/23 01:13:15;;;;;;;163.55;47.90;;;;;;;4.63;100.00;103202.25;5002226;28;20070;-78
2022/01/23 01:31:54;;;;;;;171.35;49.85;;;;;;;4.61;100.00;103205.00;4992950;28;20082;-79
2022/01/23 01:34:43;;;;;;;150.90;46.90;;;;;;;4.58;100.00;103197.78;5000858;28;20042;-79
2022/01/23 01:37:10;;;;;;;161.50;47.03;;;;;;;4.62;100.00;103208.59;5033637;28;20251;-79
2022/01/23 01:39:36;;;;;;;173.30;49.28;;;;;;;4.56;100.00;103202.34;5005212;28;20669;-79
2022/01/23 01:42:02;;;;;;;166.02;49.38;;;;;;;4.61;100.00;103210.44;5016793;28;20048;-79
2022/01/23 01:44:28;;;;;;;167.07;48.35;;;;;;;4.65;100.00;103213.97;5005163;28;20057;-78
2022/01/23 01:46:54;;;;;;;161.10;47.65;;;;;;;4.67;100.00;103218.44;5005009;28;20050;-79
2022/01/23 01:49:28;;;;;;;152.05;46.67;;;;;;;4.62;100.00;103224.88;5004816;28;20034;-78
2022/01/23 01:52:00;;;;;;;162.40;47.35;;;;;;;4.58;100.00;103222.22;5037897;28;20109;-79
2022/01/23 01:54:28;;;;;;;170.98;48.72;;;;;;;4.54;100.00;103222.28;5004689;28;20038;-79
2022/01/23 01:57:15;;;;;;;179.45;49.78;;;;;;;4.56;100.00;103223.16;5019877;28;20034;-79
2022/01/23 02:10:23;;;;;;;165.55;50.13;;;;;;;4.56;100.00;103217.75;5005374;28;20038;-79
2022/01/23 02:13:06;;;;;;;176.82;53.10;;;;;;;4.55;100.00;103213.22;5004980;28;20087;-79
2022/01/23 02:16:06;;;;;;;162.87;49.13;;;;;;;4.55;100.00;103211.41;5014194;28;20057;-80
2022/01/23 02:52:03;;;;;;;168.07;48.33;;;;;;;4.53;100.00;103196.09;5029121;28;20061;-79
2022/01/23 02:54:40;;;;;;;168.75;48.20;;;;;;;4.43;100.00;103179.06;5034736;28;20046;-78
2022/01/23 02:57:07;;;;;;;164.13;47.42;;;;;;;4.48;100.00;103181.72;5024178;28;20026;-79
2022/01/23 02:59:36;;;;;;;169.27;50.40;;;;;;;4.46;100.00;103186.22;5015619;28;20045;-78
2022/01/23 03:02:14;;;;;;;180.65;48.20;;;;;;;4.46;100.00;103192.56;5002661;28;20620;-79
2022/01/23 03:04:49;;;;;;;177.27;49.45;;;;;;;4.46;100.00;103195.28;5019266;28;20077;-78
2022/01/23 03:07:31;;;;;;;191.30;51.72;;;;;;;4.38;100.00;103172.81;5002520;28;20061;-79
2022/01/23 03:10:04;;;;;;;181.23;50.03;;;;;;;4.48;100.00;103185.31;5020054;28;20057;-79
2022/01/23 03:15:26;;;;;;;168.43;52.22;;;;;;;4.46;100.00;103184.44;5015031;28;20080;-79
2022/01/23 03:29:22;;;;;;;174.50;48.90;;;;;;;4.45;100.00;103187.19;5003926;28;20466;-78
2022/01/23 03:31:26;;;;;;;189.95;49.92;;;;;;;4.44;100.00;103191.69;5007036;28;20113;-78
2022/01/23 03:33:52;;;;;;;168.68;47.15;;;;;;;4.41;100.00;103197.16;5003509;28;20114;-78
2022/01/23 03:36:18;;;;;;;184.32;49.13;;;;;;;4.37;100.00;103184.56;5006109;28;20045;-79
2022/01/23 03:38:44;;;;;;;184.15;50.30;;;;;;;4.42;100.00;103188.09;4964650;28;20494;-79
2022/01/23 03:41:10;;;;;;;182.70;52.25;;;;;;;4.42;100.00;103198.94;4968567;28;20035;-79
2022/01/23 03:43:38;;;;;;;176.77;52.90;;;;;;;4.41;100.00;103197.16;4979001;28;20039;-78
2022/01/23 03:46:23;;;;;;;188.23;52.63;;;;;;;4.36;100.00;103180.06;4982138;28;20050;-78
2022/01/23 03:51:36;;;;;;;173.02;49.45;;;;;;;4.43;100.00;103200.75;4962229;28;20085;-79
2022/01/23 03:54:01;;;;;;;172.70;49.70;;;;;;;4.45;100.00;103207.03;4962136;28;20122;-79
2022/01/23 03:56:30;;;;;;;193.80;50.65;;;;;;;4.46;100.00;103205.22;4979238;28;20220;-79
2022/01/23 03:58:57;;;;;;;172.27;50.28;;;;;;;4.41;100.00;103200.78;4963780;28;20031;-79
2022/01/23 04:01:22;;;;;;;168.32;49.70;;;;;;;4.40;100.00;103187.25;4983166;28;20032;-79
2022/01/23 04:03:48;;;;;;;173.57;50.92;;;;;;;4.43;100.00;103198.03;4993397;28;20031;-79
2022/01/23 04:06:14;;;;;;;177.15;50.85;;;;;;;4.44;100.00;103198.94;4948690;29;20031;-78
2022/01/23 04:08:39;;;;;;;169.55;48.22;;;;;;;4.41;100.00;103203.50;4979188;28;20126;-78
2022/01/23 04:11:05;;;;;;;181.30;51.95;;;;;;;4.50;100.00;103213.28;4982971;28;20039;-79
2022/01/23 04:13:43;;;;;;;187.57;51.63;;;;;;;4.44;100.00;103215.22;4978359;28;20047;-79
2022/01/23 04:19:13;;;;;;;169.90;50.13;;;;;;;4.48;100.00;103212.44;4980211;28;21474;-79
2022/01/23 04:32:58;;;;;;;175.90;49.25;;;;;;;4.41;100.00;103203.50;4963997;29;20042;-78
2022/01/23 04:59:52;;;;;;;158.77;48.35;;;;;;;4.36;100.00;103215.31;4968939;28;20410;-78
2022/01/23 05:04:45;;;;;;;165.20;48.00;;;;;;;4.40;100.00;103211.66;4962073;28;20061;-79
2022/01/23 05:07:13;;;;;;;181.02;51.38;;;;;;;4.44;100.00;103210.66;4978173;28;20043;-79
2022/01/23 05:09:38;;;;;;;186.68;52.67;;;;;;;4.47;100.00;103213.34;4963398;28;20035;-79
2022/01/23 05:12:07;;;;;;;164.38;51.70;;;;;;;4.41;100.00;103206.19;4977098;28;20038;-81
2022/01/23 05:14:37;;;;;;;183.70;50.72;;;;;;;4.38;100.00;103213.50;4961094;28;20124;-79
2022/01/23 05:17:06;;;;;;;178.43;50.75;;;;;;;4.34;100.00;103207.19;4964140;28;20062;-78
2022/01/23 05:19:32;;;;;;;178.43;49.65;;;;;;;4.39;100.00;103210.75;4977199;28;20431;-79
2022/01/23 05:22:20;;;;;;;182.73;52.90;;;;;;;4.37;100.00;103217.13;4960896;28;20618;-79
2022/01/23 05:24:54;;;;;;;181.63;50.40;;;;;;;4.42;100.00;103212.50;4960281;28;20027;-79
2022/01/23 05:27:26;;;;;;;174.32;49.15;;;;;;;4.41;100.00;103211.63;4977074;28;20299;-79
2022/01/23 05:29:52;;;;;;;166.60;48.33;;;;;;;4.38;100.00;103208.06;4961466;28;20110;-78
2022/01/23 05:32:20;;;;;;;169.07;50.28;;;;;;;4.40;100.00;103208.94;4976634;28;20051;-78
2022/01/23 05:34:45;;;;;;;179.18;51.58;;;;;;;4.41;100.00;103217.06;4958698;28;20088;-78
2022/01/23 05:37:11;;;;;;;156.88;47.75;;;;;;;4.40;100.00;103211.66;4961329;28;20050;-78
2022/01/23 05:39:37;;;;;;;170.45;49.72;;;;;;;4.40;100.00;103207.13;4983285;28;20041;-80
2022/01/23 05:42:07;;;;;;;177.00;49.20;;;;;;;4.36;100.00;103197.25;5001301;28;20450;-79
2022/01/23 05:44:38;;;;;;;170.00;50.63;;;;;;;4.41;100.00;103205.28;5000560;28;20118;-79
2022/01/23 05:47:05;;;;;;;174.30;49.35;;;;;;;4.40;100.00;103204.41;5013737;28;20093;-78
2022/01/23 05:49:30;;;;;;;158.93;45.90;;;;;;;4.59;100.00;103213.16;5000947;28;20040;-78
2022/01/23 05:51:56;;;;;;;177.05;47.60;;;;;;;4.48;100.00;103209.72;4999860;28;20026;-79
2022/01/23 05:54:22;;;;;;;161.88;49.60;;;;;;;4.40;100.00;103204.41;5033150;28;20031;-80
2022/01/23 05:56:47;;;;;;;176.90;50.72;;;;;;;4.37;100.00;103203.56;5000601;28;20089;-80
2022/01/23 05:59:13;;;;;;;158.00;50.13;;;;;;;4.40;100.00;103200.81;4998766;28;20084;-78
2022/01/23 06:01:39;;;;;;;191.18;50.83;;;;;;;4.36;100.00;103205.38;5001678;28;20086;-79
2022/01/23 06:04:05;;;;;;;170.52;48.13;;;;;;;4.49;100.00;103219.63;5032604;28;20050;-80
2022/01/23 06:06:30;;;;;;;170.25;48.40;;;;;;;4.40;100.00;103212.53;5017391;28;20050;-79
2022/01/23 06:08:56;;;;;;;162.63;47.22;;;;;;;4.36;100.00;103208.09;5002322;28;20054;-79
2022/01/23 06:11:21;;;;;;;166.35;47.95;;;;;;;4.36;100.00;103205.38;5006522;28;20486;-78
2022/01/23 06:13:47;;;;;;;179.60;50.53;;;;;;;4.33;100.00;103209.94;5000591;28;20042;-79
2022/01/23 06:16:12;;;;;;;180.75;49.65;;;;;;;4.31;100.00;103212.69;4983585;28;20042;-78
2022/01/23 06:18:40;;;;;;;188.20;50.90;;;;;;;4.32;100.00;103216.28;4997293;28;20034;-79
2022/01/23 06:21:07;;;;;;;174.63;46.85;;;;;;;4.37;100.00;103200.84;4980954;28;20026;-78
2022/01/23 06:23:32;;;;;;;169.23;47.35;;;;;;;4.37;100.00;103208.97;4999776;28;20304;-79
2022/01/23 06:25:58;;;;;;;167.43;47.72;;;;;;;4.41;100.00;103226.97;5004019;28;20054;-78
2022/01/23 06:28:42;;;;;;;172.18;48.05;;;;;;;4.39;100.00;103229.75;5000834;28;20425;-79
2022/01/23 06:31:08;;;;;;;187.40;48.70;;;;;;;4.33;100.00;103228.91;5002654;28;20034;-80
2022/01/23 06:33:35;;;;;;;174.82;47.45;;;;;;;4.28;100.00;103229.00;5000765;28;20129;-78
2022/01/23 06:36:01;;;;;;;176.68;50.72;;;;;;;4.31;100.00;103228.97;5007853;28;20038;-79
2022/01/23 06:38:27;;;;;;;190.02;51.65;;;;;;;4.34;100.00;103225.28;5015273;28;20046;-78
2022/01/23 06:40:53;;;;;;;170.60;47.45;;;;;;;4.27;100.00;103221.78;5004104;28;20053;-78
2022/01/23 06:43:18;;;;;;;187.48;52.38;;;;;;;4.18;100.00;103225.53;4999648;28;20378;-78
2022/01/23 06:45:44;;;;;;;182.82;51.92;;;;;;;4.24;100.00;103236.25;5003475;28;20125;-79
2022/01/23 06:48:09;;;;;;;197.35;49.95;;;;;;;4.27;100.00;103235.34;4982760;28;20042;-77
2022/01/23 06:50:35;;;;;;;174.75;48.10;;;;;;;4.24;100.00;103232.66;5008712;28;20050;-78
2022/01/23 06:53:00;;;;;;;176.75;48.83;;;;;;;4.27;100.00;103231.72;5000693;28;20336;-79
2022/01/23 06:55:26;;;;;;;175.77;49.42;;;;;;;4.31;100.00;103239.81;5000569;28;20121;-78
2022/01/23 06:57:51;;;;;;;182.02;50.95;;;;;;;4.29;100.00;103235.31;5008139;28;20477;-79
2022/01/23 07:00:16;;;;;;;191.25;51.83;;;;;;;4.32;100.00;103238.00;5001238;28;20022;-79
2022/01/23 07:02:42;;;;;;;172.85;50.17;;;;;;;4.34;100.00;103247.00;5000285;28;20097;-78
2022/01/23 07:05:08;;;;;;;180.10;52.38;;;;;;;4.32;100.00;103238.88;4986624;28;20061;-79
2022/01/23 07:07:33;;;;;;;182.60;52.33;;;;;;;4.34;100.00;103245.16;5030116;28;20042;-80
2022/01/23 07:09:58;;;;;;;195.35;52.53;;;;;;;4.33;100.00;103246.09;5004804;28;20073;-78
2022/01/23 07:12:24;;;;;;;185.35;52.47;;;;;;;4.37;100.00;103241.53;4997169;28;20038;-80
2022/01/23 07:14:49;;;;;;;179.73;49.95;;;;;;;4.31;100.00;103250.66;4999108;28;20046;-79
2022/01/23 07:17:15;;;;;;;176.68;50.85;;;;;;;4.35;100.00;103255.09;4999580;28;20030;-79
2022/01/23 07:19:40;;;;;;;178.35;51.85;;;;;;;4.33;100.00;103251.53;4999519;28;20049;-81
2022/01/23 07:22:06;;;;;;;175.77;50.00;;;;;;;4.34;100.00;103255.13;5000782;28;20038;-81
2022/01/23 07:24:31;;;;;;;182.00;51.38;;;;;;;4.33;100.00;103261.47;5020714;28;20481;-81
2022/01/23 07:27:00;;;;;;;189.43;52.67;;;;;;;4.31;100.00;103255.16;5000707;28;20038;-82
2022/01/23 07:29:27;;;;;;;191.88;52.13;;;;;;;4.26;100.00;103252.50;5001450;28;20486;-81
2022/01/23 07:32:00;;;;;;;183.93;53.78;;;;;;;4.36;100.00;103265.03;5000558;28;20042;-80
2022/01/23 07:34:26;;;;;;;183.98;53.33;;;;;;;4.40;100.00;103282.16;4985272;28;20035;-81
2022/01/23 07:36:52;;;;;;;184.73;52.20;;;;;;;4.40;100.00;103272.22;5002613;28;20086;-82
2022/01/23 07:39:18;;;;;;;178.52;50.58;;;;;;;4.36;100.00;103274.97;5017534;28;20034;-80
2022/01/23 07:41:44;;;;;;;188.93;54.38;;;;;;;4.29;100.00;103267.84;5033220;28;20038;-84
2022/01/23 07:44:09;;;;;;;178.25;52.10;;;;;;;4.37;100.00;103276.78;4992342;28;20030;-82
2022/01/23 07:46:35;;;;;;;174.23;52.53;;;;;;;4.34;100.00;103283.13;5005802;28;20482;-81
2022/01/23 07:49:00;;;;;;;187.63;54.25;;;;;;;4.40;100.00;103282.16;5005872;28;20046;-82
2022/01/23 07:51:26;;;;;;;187.57;55.15;;;;;;;4.34;100.00;103271.41;5006260;28;20073;-80
2022/01/23 07:53:51;;;;;;;177.90;50.67;;;;;;;4.44;100.00;103283.91;5004286;28;20069;-84
2022/01/23 07:56:17;;;;;;;197.02;55.15;;;;;;;4.41;100.00;103292.06;5008266;28;20031;-83
2022/01/23 07:58:42;;;;;;;180.35;51.97;;;;;;;4.41;100.00;103283.94;5007829;28;20031;-81
2022/01/23 08:01:08;;;;;;;175.60;51.05;;;;;;;4.43;100.00;103282.13;5018543;28;20061;-81
2022/01/23 08:03:34;;;;;;;174.55;52.22;;;;;;;4.44;100.00;103293.88;5014090;28;20462;-81
2022/01/23 08:05:59;;;;;;;195.23;54.47;;;;;;;4.43;100.00;103303.84;5018821;28;20037;-82
2022/01/23 08:08:25;;;;;;;185.43;54.13;;;;;;;4.38;100.00;103284.91;4985762;28;20027;-83
2022/01/23 08:10:50;;;;;;;193.23;53.55;;;;;;;4.46;100.00;103292.94;4999379;28;20465;-82
2022/01/23 08:13:16;;;;;;;183.00;52.58;;;;;;;4.52;100.00;103298.25;5029796;28;20094;-83
2022/01/23 08:15:41;;;;;;;197.60;55.33;;;;;;;4.50;100.00;103296.50;4988780;28;20495;-82
2022/01/23 08:18:07;;;;;;;181.90;52.72;;;;;;;4.52;100.00;103306.38;4985255;28;20084;-82
2022/01/23 08:20:34;;;;;;;187.68;56.25;;;;;;;4.52;100.00;103303.69;4998655;28;20050;-82
2022/01/23 08:23:01;;;;;;;189.48;55.67;;;;;;;4.51;100.00;103300.97;5001894;28;20030;-82
2022/01/23 08:25:28;;;;;;;194.95;56.20;;;;;;;4.54;100.00;103309.09;5015686;28;20347;-81
2022/01/23 08:27:53;;;;;;;182.73;56.10;;;;;;;4.58;100.00;103305.44;4998805;28;20034;-80
2022/01/23 08:30:19;;;;;;;190.35;54.47;;;;;;;4.61;100.00;103305.38;4998450;28;20044;-79
2022/01/23 08:32:45;;;;;;;188.63;55.05;;;;;;;4.57;100.00;103309.03;4996133;28;20057;-79
2022/01/23 08:35:10;;;;;;;186.50;53.03;;;;;;;4.59;100.00;103309.91;5003125;28;20041;-80
2022/01/23 08:37:36;;;;;;;207.23;55.90;;;;;;;4.56;100.00;103310.88;4975823;28;20050;-80
2022/01/23 08:40:15;;;;;;;192.35;55.92;;;;;;;4.59;100.00;103318.06;5006291;28;20096;-81
2022/01/23 08:42:41;;;;;;;193.52;54.85;;;;;;;4.58;100.00;103328.03;5009446;28;20038;-81
2022/01/23 08:45:07;;;;;;;184.60;56.00;;;;;;;4.60;100.00;103323.47;4999186;28;20038;-80
2022/01/23 08:47:32;;;;;;;195.60;57.92;;;;;;;4.66;100.00;103324.31;5029744;28;20116;-81
2022/01/23 08:49:58;;;;;;;189.57;54.50;;;;;;;4.70;100.00;103331.47;4994597;28;20030;-81
2022/01/23 08:52:23;;;;;;;192.52;56.25;;;;;;;4.62;100.00;103322.56;5014993;28;20038;-82
2022/01/23 08:54:51;;;;;;;185.63;56.58;;;;;;;4.69;100.00;103326.97;4983839;28;20035;-80
2022/01/23 08:57:19;;;;;;;189.95;55.53;;;;;;;4.80;100.00;103327.69;4995112;28;20486;-81
2022/01/23 08:59:45;;;;;;;195.55;57.60;;;;;;;4.72;100.00;103326.91;4980052;28;20113;-82
2022/01/23 09:02:10;;;;;;;186.18;55.13;;;;;;;4.75;100.00;103321.44;5031119;28;20042;-83
2022/01/23 09:04:37;;;;;;;187.25;55.97;;;;;;;4.81;100.00;103325.91;5005333;28;20060;-83
2022/01/23 09:07:03;;;;;;;184.88;56.45;;;;;;;4.81;100.00;103325.91;5001163;28;20479;-83
2022/01/23 09:09:31;;;;;;;189.27;57.67;;;;;;;4.78;100.00;103322.28;5012423;28;20061;-82
2022/01/23 09:14:30;;;;;;;209.60;58.28;;;;;;;4.83;100.00;103315.91;4997462;28;20041;-82
2022/01/23 09:16:56;;;;;;;207.07;57.25;;;;;;;4.83;100.00;103324.94;4998687;28;20489;-82
2022/01/23 09:19:23;;;;;;;200.15;57.35;;;;;;;4.77;100.00;103317.81;4995901;28;20490;-82
2022/01/23 09:21:49;;;;;;;198.20;59.40;;;;;;;4.86;100.00;103327.63;5006139;28;20577;-82
2022/01/23 09:24:23;;;;;;;199.02;58.22;;;;;;;4.89;100.00;103323.97;4988257;28;20142;-82
2022/01/23 09:26:53;;;;;;;197.48;55.97;;;;;;;4.92;100.00;103324.81;5014769;28;20042;-79
2022/01/23 09:29:32;;;;;;;175.82;51.58;;;;;;;4.99;100.00;103322.00;5013903;28;20105;-82
2022/01/23 09:31:58;;;;;;;190.52;56.80;;;;;;;4.96;100.00;103331.09;4990214;28;20092;-82
2022/01/23 09:34:31;;;;;;;194.10;58.30;;;;;;;4.94;100.00;103327.50;5001647;28;20027;-82
2022/01/23 09:37:01;;;;;;;198.57;57.72;;;;;;;4.94;100.00;103330.22;4987053;28;20054;-81
2022/01/23 09:39:28;;;;;;;193.57;56.50;;;;;;;5.02;100.00;103330.09;5025289;28;20478;-81
2022/01/23 09:42:14;;;;;;;207.10;60.53;;;;;;;5.00;100.00;103331.94;5014452;28;20031;-80
2022/01/23 09:44:46;;;;;;;190.80;55.25;;;;;;;5.04;100.00;103336.41;4988733;28;20038;-81
2022/01/23 09:47:13;;;;;;;189.02;58.80;;;;;;;5.13;100.00;103323.59;5007013;28;20031;-81
2022/01/23 09:49:39;;;;;;;204.43;57.55;;;;;;;5.26;100.00;103335.16;4997211;28;20057;-83
2022/01/23 09:52:08;;;;;;;197.85;58.83;;;;;;;5.22;100.00;103335.22;5001978;28;20412;-82
2022/01/23 09:54:35;;;;;;;195.30;54.95;;;;;;;5.16;100.00;103341.63;4993895;28;20032;-81
2022/01/23 09:57:05;;;;;;;182.05;52.08;;;;;;;5.12;100.00;103342.63;4990970;28;20038;-81
2022/01/23 09:59:30;;;;;;;185.45;52.35;;;;;;;5.17;100.00;103350.69;5005130;28;20041;-81
2022/01/23 10:01:57;;;;;;;204.02;53.25;;;;;;;5.19;100.00;103341.59;5003001;28;20038;-80
2022/01/23 10:04:24;;;;;;;191.10;53.25;;;;;;;5.25;100.00;103346.91;5004860;28;20041;-81
2022/01/23 10:06:49;;;;;;;199.73;59.17;;;;;;;5.26;100.00;103353.25;5012367;28;20046;-80
2022/01/23 10:09:15;;;;;;;203.95;57.95;;;;;;;5.29;100.00;103347.75;5007884;28;20029;-80
2022/01/23 10:11:43;;;;;;;192.93;56.00;;;;;;;5.27;100.00;103347.78;5008099;28;20046;-81
2022/01/23 10:14:09;;;;;;;209.30;57.20;;;;;;;5.32;100.00;103350.44;5005319;28;20855;-81
2022/01/23 10:16:35;;;;;;;214.63;54.70;;;;;;;5.36;100.00;103357.59;4999912;28;20258;-82
2022/01/23 10:19:03;;;;;;;231.73;56.20;;;;;;;5.36;100.00;103341.28;5000682;28;20047;-79
2022/01/23 10:21:33;;;;;;;221.10;57.53;;;;;;;5.36;100.00;103346.72;5001989;28;20205;-81
2022/01/23 10:23:59;;;;;;;225.35;58.58;;;;;;;5.34;100.00;103346.78;4973881;28;20030;-81
2022/01/23 10:26:51;;;;;;;224.65;56.65;;;;;;;5.42;100.00;103345.75;5016756;28;20089;-82
2022/01/23 10:29:19;;;;;;;202.38;53.30;;;;;;;5.51;100.00;103348.31;5020456;28;20030;-85
2022/01/23 10:32:01;;;;;;;204.73;55.38;;;;;;;5.54;100.00;103348.22;5020338;28;20064;-83
2022/01/23 10:34:48;;;;;;;206.35;54.30;;;;;;;5.55;100.00;103346.44;5005009;28;20098;-81
2022/01/23 10:37:40;;;;;;;209.40;56.97;;;;;;;5.60;100.00;103339.97;5003602;28;20046;-83
2022/01/23 10:40:22;;;;;;;217.07;54.47;;;;;;;5.49;100.00;103344.69;5008004;28;20030;-83
2022/01/23 10:46:39;;;;;;;209.70;53.30;;;;;;;5.53;100.00;103343.75;5021523;28;20030;-82
2022/01/23 10:48:36;;;;;;;207.50;56.90;;;;;;;5.48;100.00;103345.66;5004832;28;20038;-84
2022/01/23 10:51:19;;;;;;;206.55;54.85;;;;;;;5.60;100.00;103342.69;5004767;28;20033;-82
2022/01/23 10:54:00;;;;;;;202.43;56.13;;;;;;;5.63;100.00;103347.19;5006826;28;20038;-82
2022/01/23 10:56:29;;;;;;;223.70;55.95;;;;;;;5.61;100.00;103338.19;5004968;28;20309;-82
2022/01/23 10:59:04;;;;;;;232.35;59.33;;;;;;;5.68;100.00;103334.41;5004390;28;20035;-82
2022/01/23 11:01:30;;;;;;;214.07;57.42;;;;;;;5.74;100.00;103337.03;5004140;28;20098;-82
2022/01/23 11:04:06;;;;;;;210.75;58.20;;;;;;;5.73;100.00;103339.75;5018622;28;20050;-83
2022/01/23 11:06:32;;;;;;;227.55;59.90;;;;;;;5.71;100.00;103337.97;5002408;28;20034;-82
2022/01/23 11:09:10;;;;;;;207.90;58.05;;;;;;;5.67;100.00;103330.81;4985662;28;20390;-83
2022/01/23 11:11:44;;;;;;;210.05;58.88;;;;;;;5.62;100.00;103329.06;4997383;28;20050;-84
2022/01/23 11:19:49;;;;;;;205.93;58.55;;;;;;;5.84;100.00;103330.47;5000683;28;20660;-83
2022/01/23 11:22:25;;;;;;;212.20;62.40;;;;;;;5.81;100.00;103314.22;5016878;28;20037;-83
2022/01/23 11:24:52;;;;;;;214.63;59.65;;;;;;;5.78;100.00;103318.81;5001038;28;20189;-83
2022/01/23 11:27:21;;;;;;;191.30;56.15;;;;;;;5.93;100.00;103325.78;5012279;28;20117;-83
2022/01/23 11:29:57;;;;;;;205.55;57.05;;;;;;;6.01;100.00;103321.13;4993350;28;20031;-83
2022/01/23 11:32:25;;;;;;;198.30;55.97;;;;;;;6.11;100.00;103325.44;4993541;28;20045;-82
2022/01/23 11:34:55;;;;;;;194.30;58.08;;;;;;;5.90;100.00;103318.56;5007980;28;20300;-85
2022/01/23 11:37:20;;;;;;;224.40;62.92;;;;;;;5.82;100.00;103315.09;4992485;28;20168;-83
2022/01/23 11:39:52;;;;;;;209.35;59.72;;;;;;;5.71;100.00;103315.31;4991773;28;20046;-83
2022/01/23 11:56:24;;;;;;;202.35;57.83;;;;;;;5.75;100.00;103311.59;5002015;28;20037;-84
2022/01/23 11:59:30;;;;;;;197.43;57.33;;;;;;;5.69;100.00;103309.91;5028608;28;20093;-84
2022/01/23 12:02:23;;;;;;;190.40;55.00;;;;;;;5.92;100.00;103302.22;5019051;28;20513;-85
2022/01/23 12:05:25;;;;;;;191.18;54.58;;;;;;;5.87;100.00;103299.59;5013195;28;20058;-84
2022/01/23 12:08:16;;;;;;;206.98;56.63;;;;;;;5.96;100.00;103304.91;5017827;28;20037;-85
2022/01/23 12:16:26;;;;;;;203.15;58.95;;;;;;;5.86;100.00;103293.28;4991350;28;20468;-85
2022/01/23 12:19:12;;;;;;;210.48;58.75;;;;;;;5.93;100.00;103288.59;5027070;28;20053;-85
2022/01/23 12:21:38;;;;;;;197.02;58.10;;;;;;;5.84;100.00;103281.53;4995166;28;20089;-83
2022/01/23 12:24:06;;;;;;;198.45;58.20;;;;;;;5.96;100.00;103280.41;5005178;28;20026;-84
2022/01/23 12:26:37;;;;;;;214.60;58.58;;;;;;;5.81;100.00;103268.00;5030637;28;20046;-84
2022/01/23 12:29:18;;;;;;;219.02;62.30;;;;;;;5.80;100.00;103276.19;4998219;28;20042;-82
2022/01/23 12:31:45;;;;;;;229.93;60.50;;;;;;;5.82;100.00;103285.19;4997696;28;20038;-82
2022/01/23 12:34:11;;;;;;;222.70;60.45;;;;;;;5.88;100.00;103277.81;5029967;28;20034;-82
2022/01/23 12:36:40;;;;;;;219.75;59.80;;;;;;;5.77;100.00;103268.09;4980534;28;20117;-83
2022/01/23 12:39:08;;;;;;;220.88;60.05;;;;;;;5.81;100.00;103269.84;5000159;28;20165;-82
2022/01/23 12:41:39;;;;;;;239.52;61.70;;;;;;;5.86;100.00;103282.41;5000087;28;20117;-83
2022/01/23 12:44:22;;;;;;;232.85;61.67;;;;;;;5.88;100.00;103277.81;5031043;28;20034;-86
2022/01/23 12:46:56;;;;;;;249.63;64.15;;;;;;;5.78;100.00;103267.19;4995934;28;20045;-83
2022/01/23 12:49:30;;;;;;;220.63;60.03;;;;;;;5.82;100.00;103269.81;5014455;28;20031;-81
2022/01/23 12:52:11;;;;;;;224.00;61.90;;;;;;;5.91;100.00;103270.53;4988839;28;20101;-84
2022/01/23 12:54:53;;;;;;;226.88;61.35;;;;;;;6.06;100.00;103264.81;4985963;28;20429;-82
2022/01/23 12:57:41;;;;;;;219.13;63.15;;;;;;;5.96;100.00;103265.91;5009718;28;20105;-81
2022/01/23 13:00:16;;;;;;;231.02;64.00;;;;;;;5.83;100.00;103265.25;5023294;28;20489;-81
2022/01/23 13:02:48;;;;;;;222.13;62.03;;;;;;;5.92;100.00;103259.63;4988644;28;20034;-81
2022/01/23 13:05:16;;;;;;;217.18;59.55;;;;;;;5.94;100.00;103260.50;4996186;28;20046;-80
2022/01/23 13:07:51;;;;;;;223.20;64.45;;;;;;;5.92;100.00;103259.63;5008946;28;20060;-81
2022/01/23 13:18:15;;;;;;;231.23;59.28;;;;;;;5.99;100.00;103252.28;5022526;28;20038;-81
2022/01/23 13:27:10;;;;;;;223.45;60.72;;;;;;;6.06;100.00;103241.22;5018751;28;20097;-80
2022/01/23 13:32:20;;;;;;;220.32;61.25;;;;;;;6.06;100.00;103229.47;4984817;28;20034;-82
2022/01/23 13:34:56;;;;;;;232.45;65.15;;;;;;;6.09;100.00;103243.00;4995076;28;20093;-82
2022/01/23 13:37:24;;;;;;;240.80;66.60;;;;;;;6.12;100.00;103244.75;5010137;28;20081;-82
2022/01/23 13:39:57;;;;;;;225.38;66.00;;;;;;;6.12;100.00;103244.75;5012503;28;20113;-82
2022/01/23 13:54:19;;;;;;;227.68;63.28;;;;;;;6.20;100.00;103231.88;5010073;28;20038;-81
2022/01/23 14:00:11;;;;;;;241.70;65.05;;;;;;;6.18;100.00;103233.72;5016307;28;20034;-79
2022/01/23 14:02:42;;;;;;;231.73;66.28;;;;;;;6.11;100.00;103234.81;4998570;28;20030;-80
2022/01/23 14:05:17;;;;;;;253.88;67.68;;;;;;;6.10;100.00;103223.03;5002307;28;20036;-79
2022/01/23 14:07:54;;;;;;;241.48;64.40;;;;;;;6.08;100.00;103222.16;5007125;28;20038;-79
2022/01/23 14:10:20;;;;;;;233.75;67.43;;;;;;;6.11;100.00;103226.63;5003678;28;20042;-80
2022/01/23 14:12:47;;;;;;;237.15;64.85;;;;;;;6.07;100.00;103221.25;5002369;28;20038;-79
2022/01/23 14:15:22;;;;;;;241.00;62.58;;;;;;;6.01;100.00;103220.50;4988932;28;20125;-80
2022/01/23 14:18:10;;;;;;;255.82;69.95;;;;;;;6.11;100.00;103221.19;4996351;28;20038;-80
2022/01/23 14:20:41;;;;;;;226.18;62.83;;;;;;;6.17;100.00;103223.78;5003176;28;20561;-80
2022/01/23 14:23:17;;;;;;;210.15;59.85;;;;;;;6.09;100.00;103215.78;5004014;28;20026;-82